Time;durP1;ratioP1;P1;durP2;ratioP2;P2;SDS_P1;SDS_P2;PMS_P1;PMS_P2;Temp;Humidity;BMP_temperature;BMP_pressure;BME280_temperature;BME280_humidity;BME280_pressure;Samples;Min_cycle;Max_cycle;Signal;HPM_P1;HPM_P2
2023/06/13 00:00:23;;;;;;;7.00;3.10;;;;;;;-128.00;-1.00;-1.00;103140;1257;1002388;-63
2023/06/13 00:02:51;;;;;;;5.80;3.30;;;;;;;-128.00;-1.00;-1.00;103202;1257;1003010;-66
2023/06/13 00:05:21;;;;;;;3.90;3.50;;;;;;;-128.00;-1.00;-1.00;103167;1257;1002645;-62
2023/06/13 00:07:49;;;;;;;4.10;3.40;;;;;;;-128.00;-1.00;-1.00;103110;1254;1010353;-67
2023/06/13 00:10:17;;;;;;;7.20;2.90;;;;;;;-128.00;-1.00;-1.00;103183;1254;1011634;-63
2023/06/13 00:12:46;;;;;;;3.50;3.00;;;;;;;-128.00;-1.00;-1.00;103130;1257;1002643;-66
2023/06/13 00:15:14;;;;;;;4.10;3.40;;;;;;;-128.00;-1.00;-1.00;103117;1254;1011829;-65
2023/06/13 00:17:41;;;;;;;5.00;3.80;;;;;;;-128.00;-1.00;-1.00;103180;1254;1012828;-65
2023/06/13 00:20:09;;;;;;;6.30;3.00;;;;;;;-128.00;-1.00;-1.00;103148;1253;1002464;-68
2023/06/13 00:22:37;;;;;;;5.20;3.50;;;;;;;-128.00;-1.00;-1.00;103113;1253;1002492;-63
2023/06/13 00:25:04;;;;;;;5.80;4.20;;;;;;;-128.00;-1.00;-1.00;103117;1257;1002972;-65
2023/06/13 00:27:32;;;;;;;5.00;3.20;;;;;;;-128.00;-1.00;-1.00;103150;1256;1002776;-65
2023/06/13 00:30:00;;;;;;;7.40;3.90;;;;;;;-128.00;-1.00;-1.00;103055;1260;1012493;-64
2023/06/13 00:32:27;;;;;;;4.30;3.40;;;;;;;-128.00;-1.00;-1.00;103111;1254;1002833;-62
2023/06/13 00:34:55;;;;;;;;;;;;;;;-128.00;-1.00;-1.00;103164;1253;1010826;-66
2023/06/13 00:37:23;;;;;;;5.10;3.70;;;;;;;-128.00;-1.00;-1.00;103132;1257;1002546;-65
2023/06/13 00:39:50;;;;;;;6.20;3.70;;;;;;;-128.00;-1.00;-1.00;103122;1257;1002548;-66
2023/06/13 00:42:17;;;;;;;3.50;3.20;;;;;;;-128.00;-1.00;-1.00;103121;1254;1002597;-69
2023/06/13 00:44:45;;;;;;;3.50;3.20;;;;;;;-128.00;-1.00;-1.00;103201;1253;1002964;-67
2023/06/13 00:47:13;;;;;;;4.00;3.30;;;;;;;-128.00;-1.00;-1.00;103133;1253;1002583;-68
2023/06/13 00:49:41;;;;;;;3.60;3.30;;;;;;;-128.00;-1.00;-1.00;103127;1253;1012201;-64
2023/06/13 00:52:08;;;;;;;7.30;3.60;;;;;;;-128.00;-1.00;-1.00;103130;1254;1002700;-67
2023/06/13 00:54:37;;;;;;;10.50;3.60;;;;;;;-128.00;-1.00;-1.00;103154;1254;1002870;-63
2023/06/13 00:57:06;;;;;;;5.00;3.50;;;;;;;-128.00;-1.00;-1.00;103143;1254;1010649;-63
2023/06/13 00:59:32;;;;;;;4.30;3.00;;;;;;;-128.00;-1.00;-1.00;103144;1254;1011646;-63
2023/06/13 01:01:59;;;;;;;10.10;3.60;;;;;;;-128.00;-1.00;-1.00;103127;1254;1002738;-63
2023/06/13 01:04:27;;;;;;;3.60;3.30;;;;;;;-128.00;-1.00;-1.00;103126;1257;1002908;-66
2023/06/13 01:06:55;;;;;;;5.40;3.50;;;;;;;-128.00;-1.00;-1.00;103132;1253;1012360;-67
2023/06/13 01:09:22;;;;;;;3.60;3.10;;;;;;;-128.00;-1.00;-1.00;103101;1254;1002464;-65
2023/06/13 01:12:10;;;;;;;3.50;3.20;;;;;;;-128.00;-1.00;-1.00;103038;1253;1002812;-65
2023/06/13 01:14:52;;;;;;;5.40;3.40;;;;;;;-128.00;-1.00;-1.00;103116;1259;1012806;-65
2023/06/13 01:17:26;;;;;;;7.70;3.20;;;;;;;-128.00;-1.00;-1.00;103125;1257;1012661;-65
2023/06/13 01:19:58;;;;;;;7.60;3.10;;;;;;;-128.00;-1.00;-1.00;103174;1253;1013327;-67
2023/06/13 01:22:42;;;;;;;8.60;4.00;;;;;;;-128.00;-1.00;-1.00;103141;1266;1010638;-64
2023/06/13 01:25:23;;;;;;;3.80;3.10;;;;;;;-128.00;-1.00;-1.00;103172;1257;1011048;-64
2023/06/13 01:27:50;;;;;;;5.20;3.00;;;;;;;-128.00;-1.00;-1.00;103204;1257;1013560;-67
2023/06/13 01:30:17;;;;;;;3.40;3.10;;;;;;;-128.00;-1.00;-1.00;103115;1258;1002339;-68
2023/06/13 01:32:44;;;;;;;8.20;3.70;;;;;;;-128.00;-1.00;-1.00;103128;1253;1003081;-64
2023/06/13 01:35:12;;;;;;;6.80;3.20;;;;;;;-128.00;-1.00;-1.00;103078;1254;1002395;-65
2023/06/13 01:37:40;;;;;;;5.40;3.60;;;;;;;-128.00;-1.00;-1.00;103028;1261;1002233;-65
2023/06/13 01:40:07;;;;;;;6.50;3.40;;;;;;;-128.00;-1.00;-1.00;103164;1253;1002244;-66
2023/06/13 01:42:36;;;;;;;4.60;3.40;;;;;;;-128.00;-1.00;-1.00;103128;1257;1013299;-65
2023/06/13 01:45:04;;;;;;;5.10;3.50;;;;;;;-128.00;-1.00;-1.00;103167;1254;1002749;-63
2023/06/13 01:47:41;;;;;;;6.90;3.50;;;;;;;-128.00;-1.00;-1.00;103152;1256;1010647;-65
2023/06/13 01:50:31;;;;;;;4.40;3.60;;;;;;;-128.00;-1.00;-1.00;103162;1253;1011196;-66
2023/06/13 01:53:10;;;;;;;6.70;3.60;;;;;;;-128.00;-1.00;-1.00;103123;1253;1012675;-63
2023/06/13 01:55:44;;;;;;;4.80;3.70;;;;;;;-128.00;-1.00;-1.00;103148;1257;1012874;-65
2023/06/13 01:58:35;;;;;;;4.70;3.60;;;;;;;-128.00;-1.00;-1.00;103136;1253;1013057;-65
2023/06/13 02:01:04;;;;;;;7.10;3.60;;;;;;;-128.00;-1.00;-1.00;102640;1262;1010119;-62
2023/06/13 02:03:32;;;;;;;7.50;3.40;;;;;;;-128.00;-1.00;-1.00;102310;1262;1010467;-66
2023/06/13 02:05:59;;;;;;;4.50;3.60;;;;;;;-128.00;-1.00;-1.00;102642;1267;1013142;-63
2023/06/13 02:08:28;;;;;;;6.10;3.70;;;;;;;-128.00;-1.00;-1.00;102592;1266;1002172;-63
2023/06/13 02:10:56;;;;;;;5.10;3.60;;;;;;;-128.00;-1.00;-1.00;102580;1262;1012646;-64
2023/06/13 02:13:23;;;;;;;4.30;4.50;;;;;;;-128.00;-1.00;-1.00;102534;1263;1002965;-70
2023/06/13 02:15:54;;;;;;;5.60;3.90;;;;;;;-128.00;-1.00;-1.00;102620;1261;1011125;-64
2023/06/13 02:18:21;;;;;;;5.90;3.20;;;;;;;-128.00;-1.00;-1.00;102619;1265;1002935;-67
2023/06/13 02:20:48;;;;;;;3.60;3.20;;;;;;;-128.00;-1.00;-1.00;102625;1266;1002779;-73
2023/06/13 02:23:16;;;;;;;26.10;3.80;;;;;;;-128.00;-1.00;-1.00;102601;1262;1002834;-65
2023/06/13 02:25:46;;;;;;;6.10;3.10;;;;;;;-128.00;-1.00;-1.00;102620;1262;1010081;-67
2023/06/13 02:28:16;;;;;;;5.60;3.30;;;;;;;-128.00;-1.00;-1.00;102638;1261;1011614;-63
2023/06/13 02:30:46;;;;;;;6.40;3.20;;;;;;;-128.00;-1.00;-1.00;102616;1266;1013186;-64
2023/06/13 02:33:15;;;;;;;5.40;3.00;;;;;;;-128.00;-1.00;-1.00;102629;1267;1002916;-62
2023/06/13 02:35:45;;;;;;;5.80;3.60;;;;;;;-128.00;-1.00;-1.00;102613;1262;1013231;-64
2023/06/13 02:38:12;;;;;;;6.70;3.60;;;;;;;-128.00;-1.00;-1.00;102827;1253;1010460;-63
2023/06/13 02:40:39;;;;;;;6.10;3.10;;;;;;;-128.00;-1.00;-1.00;103125;1253;1003248;-68
2023/06/13 02:43:09;;;;;;;5.30;3.30;;;;;;;-128.00;-1.00;-1.00;103173;1257;1013115;-64
2023/06/13 02:45:36;;;;;;;3.70;3.30;;;;;;;-128.00;-1.00;-1.00;102973;1261;1003041;-65
2023/06/13 02:48:03;;;;;;;6.50;3.60;;;;;;;-128.00;-1.00;-1.00;103029;1254;1002727;-63
2023/06/13 02:50:30;;;;;;;7.60;3.30;;;;;;;-128.00;-1.00;-1.00;103129;1254;1002618;-62
2023/06/13 02:52:57;;;;;;;7.50;3.80;;;;;;;-128.00;-1.00;-1.00;103124;1253;1002992;-66
2023/06/13 02:55:24;;;;;;;5.50;3.10;;;;;;;-128.00;-1.00;-1.00;103141;1257;1002562;-63
2023/06/13 02:57:51;;;;;;;4.00;3.00;;;;;;;-128.00;-1.00;-1.00;103150;1256;1002831;-63
2023/06/13 03:00:19;;;;;;;3.70;3.20;;;;;;;-128.00;-1.00;-1.00;103090;1253;1002759;-65
2023/06/13 03:02:50;;;;;;;4.40;3.30;;;;;;;-128.00;-1.00;-1.00;103198;1253;1010681;-70
2023/06/13 03:05:20;;;;;;;9.30;3.20;;;;;;;-128.00;-1.00;-1.00;103132;1253;1011316;-63
2023/06/13 03:07:50;;;;;;;5.20;3.60;;;;;;;-128.00;-1.00;-1.00;103125;1258;1012897;-64
2023/06/13 03:10:22;;;;;;;3.90;3.20;;;;;;;-128.00;-1.00;-1.00;103173;1257;1012447;-63
2023/06/13 03:12:49;;;;;;;5.20;4.10;;;;;;;-128.00;-1.00;-1.00;103111;1253;1002688;-65
2023/06/13 03:15:17;;;;;;;4.80;3.80;;;;;;;-128.00;-1.00;-1.00;103123;1253;1002864;-66
2023/06/13 03:17:45;;;;;;;5.50;3.30;;;;;;;-128.00;-1.00;-1.00;103131;1257;1010603;-64
2023/06/13 03:20:12;;;;;;;4.40;3.40;;;;;;;-128.00;-1.00;-1.00;103211;1256;1002978;-64
2023/06/13 03:22:41;;;;;;;;;;;;;;;-128.00;-1.00;-1.00;103119;1257;1013154;-62
2023/06/13 03:25:08;;;;;;;4.10;3.40;;;;;;;-128.00;-1.00;-1.00;103134;1253;1002480;-69
2023/06/13 03:27:40;;;;;;;4.20;3.40;;;;;;;-128.00;-1.00;-1.00;103186;1256;1010217;-64
2023/06/13 03:30:08;;;;;;;6.80;3.40;;;;;;;-128.00;-1.00;-1.00;103069;1258;1003115;-66
2023/06/13 03:32:36;;;;;;;4.60;3.40;;;;;;;-128.00;-1.00;-1.00;103118;1257;1013190;-62
2023/06/13 03:35:03;;;;;;;3.50;3.20;;;;;;;-128.00;-1.00;-1.00;103126;1257;1002934;-64
2023/06/13 03:37:30;;;;;;;11.50;3.80;;;;;;;-128.00;-1.00;-1.00;103133;1258;1002846;-66
2023/06/13 03:39:57;;;;;;;4.90;3.40;;;;;;;-128.00;-1.00;-1.00;103101;1256;1003146;-63
2023/06/13 03:42:24;;;;;;;3.90;3.40;;;;;;;-128.00;-1.00;-1.00;103129;1253;1002689;-64
2023/06/13 03:44:51;;;;;;;3.20;2.80;;;;;;;-128.00;-1.00;-1.00;103072;1259;1002336;-63
2023/06/13 03:47:18;;;;;;;6.10;3.40;;;;;;;-128.00;-1.00;-1.00;103140;1258;1002982;-66
2023/06/13 03:49:45;;;;;;;4.50;3.20;;;;;;;-128.00;-1.00;-1.00;103103;1252;1003012;-66
2023/06/13 03:52:12;;;;;;;6.50;3.30;;;;;;;-128.00;-1.00;-1.00;103040;1254;1003435;-67
2023/06/13 03:54:40;;;;;;;7.10;3.40;;;;;;;-128.00;-1.00;-1.00;103111;1254;1002907;-64
2023/06/13 03:57:08;;;;;;;4.30;3.40;;;;;;;-128.00;-1.00;-1.00;103304;1256;1013908;-64
2023/06/13 03:59:35;;;;;;;4.50;3.50;;;;;;;-128.00;-1.00;-1.00;103321;1257;1003105;-61
2023/06/13 04:02:03;;;;;;;10.20;3.30;;;;;;;-128.00;-1.00;-1.00;103362;1254;1002982;-69
2023/06/13 04:04:32;;;;;;;6.40;3.10;;;;;;;-128.00;-1.00;-1.00;103378;1254;1002805;-65
2023/06/13 04:07:05;;;;;;;3.80;3.50;;;;;;;-128.00;-1.00;-1.00;103355;1254;1011718;-63
2023/06/13 04:09:32;;;;;;;9.50;3.90;;;;;;;-128.00;-1.00;-1.00;103412;1257;1012749;-66
2023/06/13 04:12:01;;;;;;;7.70;3.80;;;;;;;-128.00;-1.00;-1.00;103343;1255;1012782;-67
2023/06/13 04:14:28;;;;;;;5.50;3.50;;;;;;;-128.00;-1.00;-1.00;103453;1254;1002948;-70
2023/06/13 04:16:57;;;;;;;6.60;3.70;;;;;;;-128.00;-1.00;-1.00;103333;1254;1002522;-66
2023/06/13 04:19:24;;;;;;;4.90;3.60;;;;;;;-128.00;-1.00;-1.00;103003;1254;1011340;-67
2023/06/13 04:21:51;;;;;;;5.60;3.70;;;;;;;-128.00;-1.00;-1.00;103158;1257;1003079;-65
2023/06/13 04:24:19;;;;;;;9.00;4.00;;;;;;;-128.00;-1.00;-1.00;103393;1256;1002750;-67
2023/06/13 04:26:46;;;;;;;5.60;3.60;;;;;;;-128.00;-1.00;-1.00;103405;1254;1002757;-64
2023/06/13 04:29:13;;;;;;;6.70;3.50;;;;;;;-128.00;-1.00;-1.00;103131;1253;1002729;-64
2023/06/13 04:31:40;;;;;;;8.40;3.70;;;;;;;-128.00;-1.00;-1.00;103382;1254;1002747;-66
2023/06/13 04:34:11;;;;;;;5.20;3.30;;;;;;;-128.00;-1.00;-1.00;103402;1256;1002562;-68
2023/06/13 04:36:41;;;;;;;9.20;4.10;;;;;;;-128.00;-1.00;-1.00;103141;1259;1013125;-66
2023/06/13 04:39:08;;;;;;;5.30;3.80;;;;;;;-128.00;-1.00;-1.00;103397;1252;1013478;-69
2023/06/13 04:41:37;;;;;;;9.20;4.20;;;;;;;-128.00;-1.00;-1.00;103409;1254;1002783;-66
2023/06/13 04:44:10;;;;;;;;;;;;;;;-128.00;-1.00;-1.00;103398;1257;1012281;-65
2023/06/13 04:46:41;;;;;;;3.70;2.90;;;;;;;-128.00;-1.00;-1.00;103457;1256;1012159;-64
2023/06/13 04:49:08;;;;;;;4.70;3.20;;;;;;;-128.00;-1.00;-1.00;103369;1257;1013226;-66
2023/06/13 04:51:35;;;;;;;5.40;3.90;;;;;;;-128.00;-1.00;-1.00;103228;1253;1002817;-66
2023/06/13 04:54:01;;;;;;;5.00;3.70;;;;;;;-128.00;-1.00;-1.00;103003;1254;1002157;-63
2023/06/13 04:56:28;;;;;;;9.60;3.70;;;;;;;-128.00;-1.00;-1.00;103116;1253;1003055;-62
2023/06/13 04:58:55;;;;;;;4.00;3.50;;;;;;;-128.00;-1.00;-1.00;103097;1253;1002783;-67
2023/06/13 05:01:26;;;;;;;6.90;3.60;;;;;;;-128.00;-1.00;-1.00;103083;1259;1002631;-62
2023/06/13 05:03:55;;;;;;;4.70;3.50;;;;;;;-128.00;-1.00;-1.00;103174;1253;1012962;-72
2023/06/13 05:06:24;;;;;;;4.10;3.20;;;;;;;-128.00;-1.00;-1.00;103137;1253;1010136;-65
2023/06/13 05:08:52;;;;;;;7.20;3.50;;;;;;;-128.00;-1.00;-1.00;103206;1257;1002301;-67
2023/06/13 05:11:19;;;;;;;4.90;4.20;;;;;;;-128.00;-1.00;-1.00;103144;1257;1002674;-68
2023/06/13 05:13:46;;;;;;;10.00;3.20;;;;;;;-128.00;-1.00;-1.00;103112;1256;1002697;-67
2023/06/13 05:16:12;;;;;;;4.70;3.30;;;;;;;-128.00;-1.00;-1.00;103107;1253;1002916;-65
2023/06/13 05:18:40;;;;;;;5.20;3.90;;;;;;;-128.00;-1.00;-1.00;103128;1253;1002739;-63
2023/06/13 05:21:07;;;;;;;6.30;3.70;;;;;;;-128.00;-1.00;-1.00;103075;1253;1003154;-61
2023/06/13 05:23:38;;;;;;;6.00;3.40;;;;;;;-128.00;-1.00;-1.00;103127;1256;1002497;-69
2023/06/13 05:26:05;;;;;;;6.40;3.30;;;;;;;-128.00;-1.00;-1.00;103080;1260;1012632;-68
2023/06/13 05:28:32;;;;;;;6.30;3.10;;;;;;;-128.00;-1.00;-1.00;103111;1260;1002884;-71
2023/06/13 05:31:01;;;;;;;3.90;2.90;;;;;;;-128.00;-1.00;-1.00;103082;1253;1002725;-64
2023/06/13 05:33:28;;;;;;;5.00;3.60;;;;;;;-128.00;-1.00;-1.00;103079;1253;1010977;-64
2023/06/13 05:35:55;;;;;;;5.60;3.60;;;;;;;-128.00;-1.00;-1.00;103132;1256;1002668;-68
2023/06/13 05:38:25;;;;;;;4.90;3.20;;;;;;;-128.00;-1.00;-1.00;103109;1257;1013522;-62
2023/06/13 05:40:52;;;;;;;6.10;3.60;;;;;;;-128.00;-1.00;-1.00;103134;1253;1003194;-64
2023/06/13 05:43:19;;;;;;;5.10;3.70;;;;;;;-128.00;-1.00;-1.00;103138;1253;1002797;-66
2023/06/13 05:45:47;;;;;;;5.80;2.90;;;;;;;-128.00;-1.00;-1.00;103104;1260;1002498;-68
2023/06/13 05:48:14;;;;;;;3.30;2.70;;;;;;;-128.00;-1.00;-1.00;103143;1257;1002767;-64
2023/06/13 05:50:41;;;;;;;5.70;3.90;;;;;;;-128.00;-1.00;-1.00;103083;1253;1003142;-69
2023/06/13 05:53:10;;;;;;;6.00;3.40;;;;;;;-128.00;-1.00;-1.00;103278;1253;1002806;-68
2023/06/13 05:55:37;;;;;;;5.40;3.70;;;;;;;-128.00;-1.00;-1.00;103086;1253;1010746;-67
2023/06/13 05:58:05;;;;;;;11.70;3.90;;;;;;;-128.00;-1.00;-1.00;103164;1253;1002998;-63
2023/06/13 06:00:32;;;;;;;3.20;2.90;;;;;;;-128.00;-1.00;-1.00;103151;1253;1002314;-66
2023/06/13 06:03:05;;;;;;;6.10;3.30;;;;;;;-128.00;-1.00;-1.00;103151;1257;1012784;-63
2023/06/13 06:05:32;;;;;;;6.50;3.50;;;;;;;-128.00;-1.00;-1.00;103155;1253;1013035;-66
2023/06/13 06:07:58;;;;;;;5.30;2.90;;;;;;;-128.00;-1.00;-1.00;103140;1253;1002633;-61
2023/06/13 06:10:25;;;;;;;5.00;3.20;;;;;;;-128.00;-1.00;-1.00;103152;1253;1003431;-66
2023/06/13 06:12:52;;;;;;;5.90;3.30;;;;;;;-128.00;-1.00;-1.00;103057;1261;1002764;-66
2023/06/13 06:15:19;;;;;;;7.00;3.70;;;;;;;-128.00;-1.00;-1.00;103153;1256;1002424;-63
2023/06/13 06:17:45;;;;;;;15.20;3.50;;;;;;;-128.00;-1.00;-1.00;103160;1253;1002910;-71
2023/06/13 06:20:12;;;;;;;5.30;3.20;;;;;;;-128.00;-1.00;-1.00;103231;1253;1002578;-70
2023/06/13 06:22:40;;;;;;;10.30;3.60;;;;;;;-128.00;-1.00;-1.00;103157;1253;1002777;-70
2023/06/13 06:25:12;;;;;;;4.30;3.20;;;;;;;-128.00;-1.00;-1.00;103109;1257;1003122;-70
2023/06/13 06:27:42;;;;;;;4.50;3.00;;;;;;;-128.00;-1.00;-1.00;103191;1257;1012846;-67
2023/06/13 06:30:09;;;;;;;6.90;2.60;;;;;;;-128.00;-1.00;-1.00;103134;1253;1002713;-69
2023/06/13 06:32:36;;;;;;;6.80;3.10;;;;;;;-128.00;-1.00;-1.00;103148;1253;1002758;-70
2023/06/13 06:35:04;;;;;;;6.40;2.90;;;;;;;-128.00;-1.00;-1.00;103082;1259;1003165;-69
2023/06/13 06:37:32;;;;;;;8.10;3.20;;;;;;;-128.00;-1.00;-1.00;103102;1257;1002421;-70
2023/06/13 06:39:58;;;;;;;5.90;3.10;;;;;;;-128.00;-1.00;-1.00;103210;1256;1002836;-65
2023/06/13 06:42:25;;;;;;;7.50;3.10;;;;;;;-128.00;-1.00;-1.00;103173;1253;1003127;-67
2023/06/13 06:45:05;;;;;;;6.90;2.90;;;;;;;-128.00;-1.00;-1.00;103074;1253;1010976;-71
2023/06/13 06:47:32;;;;;;;6.80;2.80;;;;;;;-128.00;-1.00;-1.00;103127;1257;1003514;-64
2023/06/13 06:49:59;;;;;;;6.90;2.70;;;;;;;-128.00;-1.00;-1.00;103058;1260;1002926;-66
2023/06/13 06:52:26;;;;;;;3.10;2.40;;;;;;;-128.00;-1.00;-1.00;103162;1257;1002868;-69
2023/06/13 06:54:52;;;;;;;4.30;3.80;;;;;;;-128.00;-1.00;-1.00;103178;1253;1002661;-71
2023/06/13 06:57:19;;;;;;;5.80;2.70;;;;;;;-128.00;-1.00;-1.00;103243;1253;1002045;-72
2023/06/13 06:59:50;;;;;;;5.20;2.60;;;;;;;-128.00;-1.00;-1.00;103173;1253;1011378;-69
2023/06/13 07:02:17;;;;;;;6.30;3.10;;;;;;;-128.00;-1.00;-1.00;103181;1257;1002697;-68
2023/06/13 07:04:43;;;;;;;5.20;2.70;;;;;;;-128.00;-1.00;-1.00;103173;1256;1002628;-68
2023/06/13 07:07:11;;;;;;;4.60;3.70;;;;;;;-128.00;-1.00;-1.00;103202;1253;1003055;-64
2023/06/13 07:09:37;;;;;;;8.60;3.30;;;;;;;-128.00;-1.00;-1.00;103068;1255;1002348;-68
2023/06/13 07:12:05;;;;;;;3.60;2.50;;;;;;;-128.00;-1.00;-1.00;103144;1253;1002784;-67
2023/06/13 07:14:32;;;;;;;4.10;2.80;;;;;;;-128.00;-1.00;-1.00;103095;1260;1002348;-69
2023/06/13 07:16:58;;;;;;;4.10;3.20;;;;;;;-128.00;-1.00;-1.00;103133;1257;1002518;-66
2023/06/13 07:19:25;;;;;;;5.60;4.80;;;;;;;-128.00;-1.00;-1.00;103148;1253;1002489;-65
2023/06/13 07:21:52;;;;;;;9.90;3.30;;;;;;;-128.00;-1.00;-1.00;103159;1253;1002627;-70
2023/06/13 07:24:19;;;;;;;3.60;3.30;;;;;;;-128.00;-1.00;-1.00;103161;1253;1003133;-68
2023/06/13 07:26:46;;;;;;;4.20;3.30;;;;;;;-128.00;-1.00;-1.00;103178;1257;1002438;-69
2023/06/13 07:29:13;;;;;;;6.80;2.60;;;;;;;-128.00;-1.00;-1.00;103154;1257;1002628;-66
2023/06/13 07:31:39;;;;;;;5.20;3.00;;;;;;;-128.00;-1.00;-1.00;103038;1254;1002818;-68
2023/06/13 07:34:06;;;;;;;6.10;3.00;;;;;;;-128.00;-1.00;-1.00;103170;1253;1002327;-67
2023/06/13 07:36:54;;;;;;;7.60;3.10;;;;;;;-128.00;-1.00;-1.00;103148;1253;1011767;-67
2023/06/13 07:39:20;;;;;;;6.40;2.80;;;;;;;-128.00;-1.00;-1.00;103097;1257;1002847;-70
2023/06/13 07:41:49;;;;;;;7.40;2.90;;;;;;;-128.00;-1.00;-1.00;103205;1257;1002751;-66
2023/06/13 07:44:16;;;;;;;6.30;2.60;;;;;;;-128.00;-1.00;-1.00;103109;1252;1016935;-69
2023/06/13 07:46:44;;;;;;;6.10;3.20;;;;;;;-128.00;-1.00;-1.00;103162;1253;1002209;-68
2023/06/13 07:49:10;;;;;;;8.00;3.00;;;;;;;-128.00;-1.00;-1.00;103071;1253;1002700;-69
2023/06/13 07:51:37;;;;;;;8.20;3.50;;;;;;;-128.00;-1.00;-1.00;103145;1257;1002962;-69
2023/06/13 07:54:04;;;;;;;4.20;2.80;;;;;;;-128.00;-1.00;-1.00;103153;1256;1003343;-69
2023/06/13 07:56:31;;;;;;;5.90;2.80;;;;;;;-128.00;-1.00;-1.00;103170;1253;1002723;-68
2023/06/13 07:58:57;;;;;;;5.20;2.90;;;;;;;-128.00;-1.00;-1.00;103161;1253;1002774;-68
2023/06/13 08:01:24;;;;;;;5.60;3.10;;;;;;;-128.00;-1.00;-1.00;103152;1253;1002658;-69
2023/06/13 08:03:51;;;;;;;7.70;2.80;;;;;;;-128.00;-1.00;-1.00;103213;1257;1002518;-68
2023/06/13 08:06:18;;;;;;;6.70;2.70;;;;;;;-128.00;-1.00;-1.00;103188;1257;1002607;-71
2023/06/13 08:08:45;;;;;;;3.70;2.40;;;;;;;-128.00;-1.00;-1.00;103173;1253;1002594;-69
2023/06/13 08:11:12;;;;;;;4.40;2.80;;;;;;;-128.00;-1.00;-1.00;103165;1253;1002108;-67
2023/06/13 08:13:39;;;;;;;6.40;3.50;;;;;;;-128.00;-1.00;-1.00;103214;1253;1003149;-67
2023/06/13 08:16:06;;;;;;;3.70;2.60;;;;;;;-128.00;-1.00;-1.00;103075;1258;1002580;-70
2023/06/13 08:18:33;;;;;;;4.90;2.60;;;;;;;-128.00;-1.00;-1.00;102961;1263;1002054;-67
2023/06/13 08:21:00;;;;;;;5.00;3.10;;;;;;;-128.00;-1.00;-1.00;103158;1253;1003105;-66
2023/06/13 08:23:27;;;;;;;8.50;3.00;;;;;;;-128.00;-1.00;-1.00;103186;1252;1002782;-70
2023/06/13 08:25:54;;;;;;;5.30;2.50;;;;;;;-128.00;-1.00;-1.00;103208;1253;1002488;-68
2023/06/13 08:28:21;;;;;;;5.20;2.90;;;;;;;-128.00;-1.00;-1.00;103192;1257;1003404;-69
2023/06/13 08:30:49;;;;;;;4.00;2.80;;;;;;;-128.00;-1.00;-1.00;103184;1257;1002271;-74
2023/06/13 08:33:16;;;;;;;2.90;2.60;;;;;;;-128.00;-1.00;-1.00;103225;1257;1002354;-71
2023/06/13 08:35:43;;;;;;;4.30;3.00;;;;;;;-128.00;-1.00;-1.00;103053;1253;1002843;-67
2023/06/13 08:38:11;;;;;;;6.20;3.10;;;;;;;-128.00;-1.00;-1.00;103182;1253;1002808;-67
2023/06/13 08:40:39;;;;;;;6.80;3.10;;;;;;;-128.00;-1.00;-1.00;103235;1258;1002478;-66
2023/06/13 08:43:06;;;;;;;13.00;3.20;;;;;;;-128.00;-1.00;-1.00;103126;1260;1002827;-66
2023/06/13 08:45:32;;;;;;;4.20;2.60;;;;;;;-128.00;-1.00;-1.00;103115;1253;1002761;-67
2023/06/13 08:47:59;;;;;;;7.80;2.80;;;;;;;-128.00;-1.00;-1.00;103076;1253;1002831;-70
2023/06/13 08:50:27;;;;;;;6.80;3.00;;;;;;;-128.00;-1.00;-1.00;103311;1257;1002185;-74
2023/06/13 08:52:56;;;;;;;4.50;2.50;;;;;;;-128.00;-1.00;-1.00;103162;1257;1002503;-67
2023/06/13 08:55:24;;;;;;;7.90;2.70;;;;;;;-128.00;-1.00;-1.00;103192;1256;1013376;-71
2023/06/13 08:58:11;;;;;;;4.90;3.10;;;;;;;-128.00;-1.00;-1.00;103183;1253;1013728;-68
2023/06/13 09:00:40;;;;;;;22.30;12.90;;;;;;;-128.00;-1.00;-1.00;103224;1258;1010215;-66
2023/06/13 09:03:09;;;;;;;13.10;5.10;;;;;;;-128.00;-1.00;-1.00;103130;1253;1010933;-69
2023/06/13 09:05:36;;;;;;;4.70;2.80;;;;;;;-128.00;-1.00;-1.00;103101;1261;1002756;-67
2023/06/13 09:08:03;;;;;;;4.10;2.80;;;;;;;-128.00;-1.00;-1.00;103107;1258;1002446;-71
2023/06/13 09:10:50;;;;;;;5.40;3.20;;;;;;;-128.00;-1.00;-1.00;103104;1253;1012802;-67
2023/06/13 09:13:17;;;;;;;2.70;2.40;;;;;;;-128.00;-1.00;-1.00;103011;1253;1002716;-70
2023/06/13 09:15:45;;;;;;;4.70;2.50;;;;;;;-128.00;-1.00;-1.00;103217;1258;1002870;-69
2023/06/13 09:18:11;;;;;;;3.20;2.50;;;;;;;-128.00;-1.00;-1.00;103074;1259;1003172;-66
2023/06/13 09:20:38;;;;;;;7.30;2.80;;;;;;;-128.00;-1.00;-1.00;103092;1257;1002948;-65
2023/06/13 09:23:05;;;;;;;5.10;2.90;;;;;;;-128.00;-1.00;-1.00;103171;1253;1002434;-69
2023/06/13 09:25:33;;;;;;;2.50;2.30;;;;;;;-128.00;-1.00;-1.00;103193;1252;1003358;-67
2023/06/13 09:28:26;;;;;;;9.10;3.40;;;;;;;-128.00;-1.00;-1.00;103029;1253;1002949;-67
2023/06/13 09:30:53;;;;;;;8.30;2.80;;;;;;;-128.00;-1.00;-1.00;103269;1259;1013543;-69
2023/06/13 09:33:22;;;;;;;10.90;2.30;;;;;;;-128.00;-1.00;-1.00;103235;1257;1002914;-69
2023/06/13 09:35:50;;;;;;;11.90;3.10;;;;;;;-128.00;-1.00;-1.00;103076;1253;1013184;-70
2023/06/13 09:38:25;;;;;;;4.20;2.50;;;;;;;-128.00;-1.00;-1.00;102960;1253;1010684;-68
2023/06/13 09:40:55;;;;;;;6.70;2.90;;;;;;;-128.00;-1.00;-1.00;103233;1253;1011454;-66
2023/06/13 09:43:22;;;;;;;7.60;2.50;;;;;;;-128.00;-1.00;-1.00;103141;1261;1013019;-66
2023/06/13 09:45:50;;;;;;;5.30;3.30;;;;;;;-128.00;-1.00;-1.00;103308;1257;1002451;-67
2023/06/13 09:48:18;;;;;;;4.80;2.60;;;;;;;-128.00;-1.00;-1.00;103231;1252;1002654;-66
2023/06/13 09:50:44;;;;;;;10.50;3.20;;;;;;;-128.00;-1.00;-1.00;103285;1253;1002673;-67
2023/06/13 09:53:11;;;;;;;8.20;3.00;;;;;;;-128.00;-1.00;-1.00;103260;1257;1002540;-67
2023/06/13 09:55:38;;;;;;;3.50;2.40;;;;;;;-128.00;-1.00;-1.00;103253;1257;1002645;-74
2023/06/13 09:58:05;;;;;;;7.40;3.10;;;;;;;-128.00;-1.00;-1.00;103094;1260;1002519;-66
2023/06/13 10:00:35;;;;;;;5.90;3.00;;;;;;;-128.00;-1.00;-1.00;103240;1253;1013431;-70
2023/06/13 10:03:03;;;;;;;3.60;2.40;;;;;;;-128.00;-1.00;-1.00;103242;1253;1002705;-69
2023/06/13 10:05:46;;;;;;;6.10;2.60;;;;;;;-128.00;-1.00;-1.00;103224;1253;1011089;-67
2023/06/13 10:08:14;;;;;;;6.30;3.40;;;;;;;-128.00;-1.00;-1.00;103133;1258;1003164;-67
2023/06/13 10:10:41;;;;;;;7.40;3.40;;;;;;;-128.00;-1.00;-1.00;103121;1260;1002772;-67
2023/06/13 10:13:10;;;;;;;4.40;3.10;;;;;;;-128.00;-1.00;-1.00;103216;1253;1002618;-66
2023/06/13 10:15:41;;;;;;;5.90;2.60;;;;;;;-128.00;-1.00;-1.00;103266;1253;1010360;-65
2023/06/13 10:18:11;;;;;;;5.70;2.70;;;;;;;-128.00;-1.00;-1.00;103245;1253;1010290;-67
2023/06/13 10:20:38;;;;;;;8.40;2.90;;;;;;;-128.00;-1.00;-1.00;103263;1253;1012308;-65
2023/06/13 10:23:08;;;;;;;5.80;2.80;;;;;;;-128.00;-1.00;-1.00;103283;1256;1003007;-67
2023/06/13 10:25:35;;;;;;;4.20;2.80;;;;;;;-128.00;-1.00;-1.00;103133;1253;1013785;-76
2023/06/13 10:28:27;;;;;;;6.80;2.80;;;;;;;-128.00;-1.00;-1.00;103112;1253;1002478;-65
2023/06/13 10:31:14;;;;;;;3.20;2.60;;;;;;;-128.00;-1.00;-1.00;103250;1256;1011064;-66
2023/06/13 10:34:39;;;;;;;5.30;2.90;;;;;;;-128.00;-1.00;-1.00;103242;1253;1012849;-66
2023/06/13 10:37:21;;;;;;;5.60;3.30;;;;;;;-128.00;-1.00;-1.00;102664;1260;1013242;-69
2023/06/13 10:40:28;;;;;;;7.20;3.00;;;;;;;-128.00;-1.00;-1.00;102656;1268;1013330;-69
2023/06/13 10:42:57;;;;;;;6.70;2.70;;;;;;;-128.00;-1.00;-1.00;102706;1260;1010779;-69
2023/06/13 10:45:24;;;;;;;3.60;3.10;;;;;;;-128.00;-1.00;-1.00;102668;1267;1011326;-67
2023/06/13 10:47:51;;;;;;;4.80;2.80;;;;;;;-128.00;-1.00;-1.00;102652;1264;1002735;-66
2023/06/13 10:50:20;;;;;;;5.50;3.00;;;;;;;-128.00;-1.00;-1.00;102716;1265;1002744;-71
2023/06/13 10:52:50;;;;;;;7.00;3.10;;;;;;;-128.00;-1.00;-1.00;102663;1260;1012624;-67
2023/06/13 10:55:29;;;;;;;4.00;2.80;;;;;;;-128.00;-1.00;-1.00;102539;1260;1010480;-67
2023/06/13 10:57:57;;;;;;;5.70;3.30;;;;;;;-128.00;-1.00;-1.00;102701;1260;1011140;-68
2023/06/13 11:00:25;;;;;;;9.70;3.30;;;;;;;-128.00;-1.00;-1.00;102691;1264;1003175;-66
2023/06/13 11:02:59;;;;;;;7.60;3.30;;;;;;;-128.00;-1.00;-1.00;102703;1266;1002623;-67
2023/06/13 11:05:26;;;;;;;6.50;3.50;;;;;;;-128.00;-1.00;-1.00;102669;1265;1012457;-69
2023/06/13 11:08:16;;;;;;;4.40;2.20;;;;;;;-128.00;-1.00;-1.00;103050;1253;1010815;-69
2023/06/13 11:10:43;;;;;;;8.70;3.30;;;;;;;-128.00;-1.00;-1.00;103312;1259;1011119;-68
2023/06/13 11:13:24;;;;;;;4.80;3.10;;;;;;;-128.00;-1.00;-1.00;102877;1262;1002672;-68
2023/06/13 11:15:54;;;;;;;5.90;2.90;;;;;;;-128.00;-1.00;-1.00;103059;1261;1012610;-69
2023/06/13 11:18:21;;;;;;;3.00;2.70;;;;;;;-128.00;-1.00;-1.00;102994;1256;1012664;-66
2023/06/13 11:20:55;;;;;;;5.70;2.80;;;;;;;-128.00;-1.00;-1.00;103027;1255;1003096;-67
2023/06/13 11:23:23;;;;;;;8.40;2.70;;;;;;;-128.00;-1.00;-1.00;102908;1256;1011005;-66
2023/06/13 11:25:50;;;;;;;6.60;3.10;;;;;;;-128.00;-1.00;-1.00;103009;1261;1002216;-68